Time;durP1;ratioP1;P1;durP2;ratioP2;P2;SDS_P1;SDS_P2;PMS_P1;PMS_P2;Temp;Humidity;BMP_temperature;BMP_pressure;BME280_temperature;BME280_humidity;BME280_pressure;Samples;Min_cycle;Max_cycle;Signal;HPM_P1;HPM_P2
2024/02/05 00:01:37;;;;;;;24.13;5.13;;;9.70;99.90;;;;;;6369751;22;20030;-82
2024/02/05 00:04:04;;;;;;;29.58;5.95;;;9.60;99.90;;;;;;6369873;22;20504;-82
2024/02/05 00:06:30;;;;;;;36.05;5.35;;;9.60;99.90;;;;;;6369948;22;20346;-83
2024/02/05 00:08:56;;;;;;;28.10;5.93;;;9.60;99.90;;;;;;6370405;22;20009;-82
2024/02/05 00:11:22;;;;;;;24.73;4.68;;;9.60;99.90;;;;;;6341828;22;20434;-82
2024/02/05 00:13:48;;;;;;;20.63;4.82;;;9.60;99.90;;;;;;6341474;22;20002;-83
2024/02/05 00:16:14;;;;;;;36.65;6.65;;;9.60;99.90;;;;;;6369855;22;20005;-83
2024/02/05 00:18:40;;;;;;;37.08;6.00;;;9.50;99.90;;;;;;6369627;22;20368;-82
2024/02/05 00:21:06;;;;;;;28.42;5.53;;;9.60;99.90;;;;;;6369338;22;20093;-82
2024/02/05 00:23:32;;;;;;;26.17;5.57;;;9.60;99.90;;;;;;6368834;22;20005;-83
2024/02/05 00:25:58;;;;;;;31.85;5.95;;;9.60;99.90;;;;;;6369569;22;20081;-84
2024/02/05 00:28:23;;;;;;;40.17;6.40;;;9.50;99.90;;;;;;6369966;22;20413;-84
2024/02/05 00:30:49;;;;;;;35.85;6.43;;;9.60;99.90;;;;;;6370111;22;20014;-83
2024/02/05 00:33:15;;;;;;;31.20;5.40;;;9.60;99.90;;;;;;6341865;22;20022;-82
2024/02/05 00:35:41;;;;;;;31.33;4.15;;;9.50;99.90;;;;;;6369652;22;20065;-83
2024/02/05 00:38:07;;;;;;;27.40;4.60;;;9.60;99.90;;;;;;6369371;22;20005;-83
2024/02/05 00:40:33;;;;;;;35.13;4.85;;;9.60;99.90;;;;;;6341458;22;20425;-82
2024/02/05 00:42:59;;;;;;;33.35;4.13;;;9.60;99.90;;;;;;6341036;22;20051;-83
2024/02/05 00:45:25;;;;;;;16.67;3.38;;;9.60;99.90;;;;;;6341301;22;20052;-83
2024/02/05 00:47:51;;;;;;;22.38;4.07;;;9.60;99.90;;;;;;6340934;22;20034;-84
2024/02/05 00:50:16;;;;;;;20.92;4.90;;;9.60;99.90;;;;;;6339153;22;20034;-85
2024/02/05 00:52:42;;;;;;;31.35;5.15;;;9.60;99.90;;;;;;6369425;22;20372;-83
2024/02/05 00:55:08;;;;;;;31.55;4.40;;;9.60;99.90;;;;;;6341254;22;20452;-83
2024/02/05 00:57:34;;;;;;;26.13;4.40;;;9.60;99.90;;;;;;6340925;22;20325;-83
2024/02/05 00:59:59;;;;;;;29.17;5.28;;;9.60;99.90;;;;;;6339897;22;20005;-84
2024/02/05 01:02:25;;;;;;;30.83;5.15;;;9.50;99.90;;;;;;6340778;22;20411;-82
2024/02/05 01:04:53;;;;;;;39.20;4.72;;;9.50;99.90;;;;;;6369399;22;20026;-84
2024/02/05 01:07:19;;;;;;;24.00;4.18;;;9.50;99.90;;;;;;6341370;22;20218;-82
2024/02/05 01:09:45;;;;;;;29.73;4.70;;;9.50;99.90;;;;;;6341050;22;20002;-82
2024/02/05 01:12:11;;;;;;;25.27;5.25;;;9.50;99.90;;;;;;6340427;22;20011;-82
2024/02/05 01:14:42;;;;;;;24.67;4.25;;;9.40;99.90;;;;;;6341632;22;20426;-83
2024/02/05 01:17:18;;;;;;;27.13;4.82;;;9.40;99.90;;;;;;6341806;22;20006;-81
2024/02/05 01:19:44;;;;;;;31.05;5.80;;;9.40;99.90;;;;;;6341342;22;20014;-82
2024/02/05 01:22:10;;;;;;;28.13;5.10;;;9.40;99.90;;;;;;6369936;22;20060;-81
2024/02/05 01:24:35;;;;;;;34.50;5.65;;;9.40;99.90;;;;;;6369786;22;20011;-83
2024/02/05 01:27:01;;;;;;;28.83;4.68;;;9.40;99.90;;;;;;6341896;22;20082;-83
2024/02/05 01:29:27;;;;;;;27.60;4.05;;;9.30;99.90;;;;;;6368261;22;19999;-85
2024/02/05 01:31:53;;;;;;;28.13;4.55;;;9.40;99.90;;;;;;6339722;22;20018;-85
2024/02/05 01:34:18;;;;;;;41.50;6.55;;;9.40;99.90;;;;;;6368391;22;20026;-84
2024/02/05 01:36:44;;;;;;;34.25;4.55;;;9.30;99.90;;;;;;6369854;22;20505;-83
2024/02/05 01:39:10;;;;;;;33.35;4.80;;;9.30;99.90;;;;;;6370526;22;20013;-84
2024/02/05 01:41:36;;;;;;;28.63;5.22;;;9.30;99.90;;;;;;6342488;22;20010;-83
2024/02/05 01:44:02;;;;;;;27.63;4.82;;;9.30;99.90;;;;;;6370503;22;20381;-82
2024/02/05 01:46:29;;;;;;;29.83;4.45;;;9.30;99.90;;;;;;6342159;22;20007;-84
2024/02/05 01:49:02;;;;;;;29.05;4.32;;;9.30;99.90;;;;;;6341503;22;20017;-84
2024/02/05 01:51:34;;;;;;;25.02;3.85;;;9.30;99.90;;;;;;6341185;22;20010;-83
2024/02/05 01:54:00;;;;;;;21.50;3.67;;;9.30;99.90;;;;;;6370164;22;20002;-84
2024/02/05 01:56:32;;;;;;;32.78;6.22;;;9.30;99.90;;;;;;6341971;22;20002;-85
2024/02/05 01:59:01;;;;;;;25.88;5.35;;;9.30;99.90;;;;;;6370083;22;19995;-84
2024/02/05 02:01:29;;;;;;;19.65;4.25;;;9.30;99.90;;;;;;6340871;22;20009;-84
2024/02/05 02:03:55;;;;;;;27.67;4.63;;;9.30;99.90;;;;;;6342431;22;20006;-83
2024/02/05 02:06:21;;;;;;;18.88;4.03;;;9.30;99.90;;;;;;6341839;22;20006;-82
2024/02/05 02:08:48;;;;;;;15.45;3.97;;;9.30;99.90;;;;;;6342134;22;20017;-84
2024/02/05 02:11:14;;;;;;;15.50;3.47;;;9.30;99.90;;;;;;6369638;22;20444;-85
2024/02/05 02:13:39;;;;;;;18.50;3.30;;;9.30;99.90;;;;;;6369736;22;20006;-85
2024/02/05 02:16:10;;;;;;;25.25;4.20;;;9.30;99.90;;;;;;6341482;22;20059;-83
2024/02/05 02:18:37;;;;;;;20.13;5.78;;;9.30;99.90;;;;;;6369016;22;20413;-86
2024/02/05 02:21:04;;;;;;;32.33;5.03;;;9.30;99.90;;;;;;6341288;22;20532;-84
2024/02/05 02:23:33;;;;;;;29.10;5.57;;;9.20;99.90;;;;;;6341060;22;20017;-85
2024/02/05 02:26:03;;;;;;;35.63;5.47;;;9.20;99.90;;;;;;6340498;22;20337;-83
2024/02/05 02:28:29;;;;;;;25.40;4.13;;;9.20;99.90;;;;;;6368934;22;19999;-87
2024/02/05 02:30:56;;;;;;;24.50;4.50;;;9.20;99.90;;;;;;6340383;22;20025;-85
2024/02/05 02:33:25;;;;;;;33.28;5.53;;;9.20;99.90;;;;;;6340186;22;20002;-84
2024/02/05 02:36:11;;;;;;;27.58;4.40;;;9.20;99.90;;;;;;6340750;22;20013;-83
2024/02/05 02:38:44;;;;;;;20.35;3.58;;;9.20;99.90;;;;;;6341327;22;20005;-83
2024/02/05 02:41:15;;;;;;;30.05;4.72;;;9.20;99.90;;;;;;6368696;22;20010;-84
2024/02/05 02:44:02;;;;;;;32.95;4.60;;;9.20;99.90;;;;;;6368936;22;20084;-84
2024/02/05 02:46:29;;;;;;;13.65;3.22;;;9.20;99.90;;;;;;6368133;22;20029;-84
2024/02/05 02:48:55;;;;;;;30.90;4.22;;;9.20;99.90;;;;;;6340750;22;20011;-86
2024/02/05 02:51:21;;;;;;;24.05;5.00;;;9.10;99.90;;;;;;6367488;22;20015;-85
2024/02/05 02:53:47;;;;;;;19.02;4.20;;;9.10;99.90;;;;;;6368723;22;20579;-84
2024/02/05 02:56:13;;;;;;;21.00;3.83;;;9.10;99.90;;;;;;6340150;22;20055;-85
2024/02/05 02:58:39;;;;;;;17.23;3.90;;;9.10;99.90;;;;;;6341044;22;20002;-85
2024/02/05 03:01:05;;;;;;;25.40;4.20;;;9.10;99.90;;;;;;6341213;22;20260;-84
2024/02/05 03:03:31;;;;;;;32.47;6.78;;;9.10;99.90;;;;;;6341125;22;20003;-83
2024/02/05 03:05:57;;;;;;;20.75;3.40;;;9.10;99.90;;;;;;6368935;22;20013;-84
2024/02/05 03:08:23;;;;;;;21.05;4.07;;;9.10;99.90;;;;;;6369198;22;20024;-83
2024/02/05 03:10:49;;;;;;;17.75;4.60;;;9.10;99.90;;;;;;6340698;22;20006;-83
2024/02/05 03:13:16;;;;;;;28.08;4.70;;;9.10;99.90;;;;;;6341004;22;20049;-83
2024/02/05 03:15:41;;;;;;;27.35;4.75;;;9.10;99.90;;;;;;6340415;22;20346;-83
2024/02/05 03:18:08;;;;;;;25.05;4.13;;;9.10;99.90;;;;;;6340334;22;20031;-83
2024/02/05 03:20:37;;;;;;;18.38;3.85;;;9.00;99.90;;;;;;6342019;22;20006;-83
2024/02/05 03:23:04;;;;;;;25.00;3.80;;;9.00;99.90;;;;;;6369914;22;20085;-83
2024/02/05 03:25:30;;;;;;;23.48;4.82;;;9.00;99.90;;;;;;6341997;22;20003;-84
2024/02/05 03:27:57;;;;;;;25.25;5.80;;;9.00;99.90;;;;;;6342778;22;20110;-84
2024/02/05 03:30:29;;;;;;;22.58;4.13;;;9.00;99.90;;;;;;6370132;22;20475;-83
2024/02/05 03:32:56;;;;;;;21.60;4.43;;;9.00;99.90;;;;;;6342084;22;20018;-85
2024/02/05 03:35:23;;;;;;;24.63;3.17;;;9.00;99.90;;;;;;6341997;22;20030;-84
2024/02/05 03:37:49;;;;;;;20.73;5.65;;;9.00;99.90;;;;;;6341640;22;20003;-83
2024/02/05 03:40:15;;;;;;;27.85;4.32;;;8.90;99.90;;;;;;6340998;22;20010;-85
2024/02/05 03:42:41;;;;;;;25.50;4.30;;;9.00;99.90;;;;;;6340889;22;20101;-83
2024/02/05 03:45:08;;;;;;;19.20;3.65;;;8.90;99.90;;;;;;6341709;22;20037;-83
2024/02/05 03:47:34;;;;;;;21.80;3.70;;;9.00;99.90;;;;;;6341144;22;20026;-84
2024/02/05 03:50:00;;;;;;;18.35;3.72;;;8.90;99.90;;;;;;6368797;22;20052;-83
2024/02/05 03:52:26;;;;;;;15.90;3.17;;;8.90;99.90;;;;;;6341252;22;20003;-84
2024/02/05 03:54:51;;;;;;;19.63;3.05;;;8.90;99.90;;;;;;6369536;22;19997;-84
2024/02/05 03:57:18;;;;;;;19.40;3.72;;;8.90;99.90;;;;;;6341680;22;20013;-85
2024/02/05 03:59:44;;;;;;;17.27;3.78;;;8.90;99.90;;;;;;6341099;22;19998;-83
2024/02/05 04:02:10;;;;;;;21.77;3.60;;;8.90;99.90;;;;;;6341430;22;20064;-83
2024/02/05 04:04:37;;;;;;;20.83;4.28;;;8.90;99.90;;;;;;6340966;22;20119;-82
2024/02/05 04:07:03;;;;;;;24.88;4.60;;;8.90;99.90;;;;;;6341135;22;20089;-84
2024/02/05 04:09:29;;;;;;;19.15;4.13;;;8.90;99.90;;;;;;6341554;22;20018;-84
2024/02/05 04:11:55;;;;;;;17.67;3.80;;;8.90;99.90;;;;;;6341470;22;20318;-83
2024/02/05 04:14:21;;;;;;;21.48;5.25;;;8.90;99.90;;;;;;6341925;22;20429;-84
2024/02/05 04:16:50;;;;;;;26.88;4.18;;;8.90;99.90;;;;;;6341907;22;20006;-82
2024/02/05 04:19:16;;;;;;;15.65;2.45;;;8.90;99.90;;;;;;6315663;22;20346;-83
2024/02/05 04:21:42;;;;;;;17.48;3.78;;;8.90;99.90;;;;;;6341330;22;20014;-83
2024/02/05 04:24:08;;;;;;;23.00;4.05;;;8.90;99.90;;;;;;6341572;22;20079;-83
2024/02/05 04:26:34;;;;;;;30.27;4.72;;;8.90;99.90;;;;;;6369414;22;20005;-83
2024/02/05 04:28:59;;;;;;;17.70;3.47;;;8.90;99.90;;;;;;6342122;22;20006;-81
2024/02/05 04:31:25;;;;;;;19.42;4.65;;;8.90;99.90;;;;;;6342951;22;20018;-82
2024/02/05 04:33:51;;;;;;;17.42;4.18;;;8.90;99.90;;;;;;6369382;22;20056;-84
2024/02/05 04:36:17;;;;;;;13.27;3.65;;;8.90;99.90;;;;;;6369706;22;20010;-81
2024/02/05 04:38:43;;;;;;;16.05;3.53;;;8.90;99.90;;;;;;6341993;22;20005;-81
2024/02/05 04:41:11;;;;;;;18.60;3.83;;;8.90;99.90;;;;;;6341507;22;20321;-83
2024/02/05 04:43:42;;;;;;;10.13;3.13;;;8.90;99.90;;;;;;6369183;22;20002;-82
2024/02/05 04:46:12;;;;;;;15.73;3.60;;;8.90;99.90;;;;;;6341262;22;20013;-83
2024/02/05 04:48:37;;;;;;;22.42;3.70;;;8.90;99.90;;;;;;6341396;22;20064;-83
2024/02/05 04:51:10;;;;;;;11.15;2.53;;;8.80;99.90;;;;;;6369190;22;20003;-82
2024/02/05 04:53:36;;;;;;;22.67;3.60;;;8.80;99.90;;;;;;6341548;22;20036;-83
2024/02/05 04:56:01;;;;;;;19.13;3.38;;;8.80;99.90;;;;;;6369070;22;20043;-83
2024/02/05 04:58:27;;;;;;;16.73;4.03;;;8.80;99.90;;;;;;6341390;22;20010;-83
2024/02/05 05:00:53;;;;;;;15.63;3.65;;;8.80;99.90;;;;;;6341530;22;20421;-83
2024/02/05 05:03:18;;;;;;;17.05;3.08;;;8.80;99.90;;;;;;6341468;22;20426;-84
2024/02/05 05:05:44;;;;;;;14.27;3.45;;;8.80;99.90;;;;;;6341601;22;19994;-83
2024/02/05 05:08:09;;;;;;;14.00;3.50;;;8.80;99.90;;;;;;6341234;22;20089;-85
2024/02/05 05:10:35;;;;;;;12.35;2.78;;;8.80;99.90;;;;;;6344001;22;20014;-82
2024/02/05 05:13:05;;;;;;;15.90;3.15;;;8.70;99.90;;;;;;6372642;22;19998;-81
2024/02/05 05:15:34;;;;;;;10.90;2.53;;;8.70;99.90;;;;;;6344315;22;20018;-83
2024/02/05 05:18:00;;;;;;;13.52;3.28;;;8.70;99.90;;;;;;6372508;22;20433;-82
2024/02/05 05:20:26;;;;;;;13.95;3.08;;;8.70;99.90;;;;;;6371989;22;20028;-83
2024/02/05 05:22:51;;;;;;;15.52;3.28;;;8.70;99.90;;;;;;6344544;22;20452;-82
2024/02/05 05:25:17;;;;;;;19.45;3.60;;;8.60;99.90;;;;;;6344862;22;20005;-83
2024/02/05 05:27:43;;;;;;;15.38;5.10;;;8.60;99.90;;;;;;6372097;22;20116;-81
2024/02/05 05:30:09;;;;;;;14.43;3.00;;;8.60;99.90;;;;;;6344235;22;20083;-82
2024/02/05 05:32:35;;;;;;;14.18;3.10;;;8.60;99.90;;;;;;6372408;22;20429;-84
2024/02/05 05:35:01;;;;;;;17.83;3.75;;;8.60;99.90;;;;;;6372529;22;19998;-84
2024/02/05 05:37:27;;;;;;;11.90;3.00;;;8.60;99.90;;;;;;6344328;22;20007;-85
2024/02/05 05:39:52;;;;;;;13.60;2.90;;;8.60;99.90;;;;;;6344316;22;20085;-84
2024/02/05 05:42:20;;;;;;;15.02;3.50;;;8.50;99.90;;;;;;6372359;22;20009;-82
2024/02/05 05:44:46;;;;;;;16.65;2.92;;;8.50;99.90;;;;;;6344475;22;19998;-81
2024/02/05 05:47:13;;;;;;;12.50;3.58;;;8.50;99.90;;;;;;6344438;22;20010;-83
2024/02/05 05:49:39;;;;;;;15.68;3.13;;;8.50;99.90;;;;;;6344470;22;20002;-82
2024/02/05 05:52:05;;;;;;;14.50;3.38;;;8.50;99.90;;;;;;6344180;22;20064;-84
2024/02/05 05:54:31;;;;;;;16.40;3.33;;;8.50;99.90;;;;;;6372353;22;20479;-84
2024/02/05 05:56:57;;;;;;;12.20;3.30;;;8.50;99.90;;;;;;6344365;22;20006;-84
2024/02/05 05:59:23;;;;;;;10.38;2.85;;;8.40;99.90;;;;;;6344335;22;20088;-83
2024/02/05 06:01:49;;;;;;;13.10;2.85;;;8.40;99.90;;;;;;6344526;22;20002;-83
2024/02/05 06:04:14;;;;;;;17.70;4.25;;;8.40;99.90;;;;;;6372615;22;20017;-83
2024/02/05 06:06:40;;;;;;;17.27;3.50;;;8.40;99.90;;;;;;6372255;22;20362;-83
2024/02/05 06:09:06;;;;;;;18.25;3.17;;;8.40;99.90;;;;;;6344228;22;20088;-84
2024/02/05 06:11:32;;;;;;;10.23;2.70;;;8.30;99.90;;;;;;6372170;22;20010;-84
2024/02/05 06:13:58;;;;;;;19.10;3.30;;;8.40;99.90;;;;;;6372269;22;20441;-84
2024/02/05 06:16:24;;;;;;;16.50;2.90;;;8.30;99.90;;;;;;6344218;22;20002;-83
2024/02/05 06:18:50;;;;;;;10.82;2.92;;;8.30;99.90;;;;;;6344436;22;20002;-84
2024/02/05 06:21:17;;;;;;;15.07;3.17;;;8.30;99.90;;;;;;6342043;22;20018;-84
2024/02/05 06:23:43;;;;;;;16.42;2.53;;;8.30;99.90;;;;;;6342504;22;19995;-84
2024/02/05 06:26:10;;;;;;;13.32;3.03;;;8.30;99.90;;;;;;6342686;22;20009;-84
2024/02/05 06:28:37;;;;;;;13.05;2.35;;;8.30;99.90;;;;;;6370418;22;20085;-84
2024/02/05 06:31:03;;;;;;;17.73;3.20;;;8.30;99.90;;;;;;6370368;22;20006;-83
2024/02/05 06:33:31;;;;;;;12.55;3.15;;;8.30;99.90;;;;;;6342387;22;20010;-84
2024/02/05 06:35:57;;;;;;;15.70;2.42;;;8.30;99.90;;;;;;6342168;22;20010;-84
2024/02/05 06:38:23;;;;;;;7.43;2.03;;;8.30;99.90;;;;;;6342363;22;20002;-83
2024/02/05 06:40:49;;;;;;;16.33;3.08;;;8.30;99.90;;;;;;6342339;22;20033;-83
2024/02/05 06:43:16;;;;;;;17.48;3.72;;;8.30;99.90;;;;;;6370677;22;20158;-84
2024/02/05 06:45:41;;;;;;;12.85;2.83;;;8.20;99.90;;;;;;6342461;22;20085;-83
2024/02/05 06:48:07;;;;;;;13.07;3.60;;;8.30;99.90;;;;;;6370388;22;20500;-83
2024/02/05 06:50:33;;;;;;;10.48;2.42;;;8.30;99.90;;;;;;6370417;22;20085;-83
2024/02/05 06:52:59;;;;;;;16.35;2.83;;;8.30;99.90;;;;;;6342756;22;20338;-83
2024/02/05 06:55:25;;;;;;;14.85;2.83;;;8.30;99.90;;;;;;6342575;22;19994;-83
2024/02/05 06:57:50;;;;;;;11.10;2.67;;;8.20;99.90;;;;;;6342110;22;20014;-85
2024/02/05 07:00:16;;;;;;;16.63;4.13;;;8.20;99.90;;;;;;6340199;22;20006;-85
2024/02/05 07:02:42;;;;;;;15.48;3.53;;;8.20;99.90;;;;;;6368919;22;20351;-84
2024/02/05 07:05:10;;;;;;;11.85;3.78;;;8.20;99.90;;;;;;6368531;22;19999;-85
2024/02/05 07:07:36;;;;;;;20.02;3.60;;;8.10;99.90;;;;;;6341537;22;20105;-84
2024/02/05 07:10:03;;;;;;;12.27;2.70;;;8.10;99.90;;;;;;6341699;22;20315;-85
2024/02/05 07:12:29;;;;;;;14.75;3.45;;;8.10;99.90;;;;;;6370205;22;20010;-84
2024/02/05 07:14:54;;;;;;;12.88;3.13;;;8.10;99.90;;;;;;6341676;22;20026;-84
2024/02/05 07:17:30;;;;;;;16.13;2.78;;;8.10;99.90;;;;;;6369579;22;20002;-85
2024/02/05 07:19:59;;;;;;;17.65;3.22;;;8.10;99.90;;;;;;6369670;22;20013;-84
2024/02/05 07:22:24;;;;;;;18.15;3.17;;;8.10;99.90;;;;;;6341946;22;20503;-84
2024/02/05 07:24:50;;;;;;;18.90;3.22;;;8.10;99.90;;;;;;6341673;22;20011;-84
2024/02/05 07:27:16;;;;;;;13.93;2.97;;;8.10;99.90;;;;;;6369712;22;20074;-85
2024/02/05 07:29:42;;;;;;;16.92;3.83;;;8.10;99.90;;;;;;6369428;22;19994;-85
2024/02/05 07:32:08;;;;;;;14.68;3.40;;;8.10;99.90;;;;;;6341334;22;20014;-86
2024/02/05 07:34:34;;;;;;;10.75;2.60;;;8.10;99.90;;;;;;6340708;22;19994;-85
2024/02/05 07:36:59;;;;;;;15.32;3.15;;;8.10;99.90;;;;;;6368755;22;20012;-83
2024/02/05 07:39:26;;;;;;;18.70;4.25;;;8.10;99.90;;;;;;6341211;22;20013;-83
2024/02/05 07:41:52;;;;;;;21.40;3.28;;;8.10;99.90;;;;;;6341389;22;20013;-83
2024/02/05 07:44:18;;;;;;;14.23;3.50;;;8.10;99.90;;;;;;6369459;22;20020;-84
2024/02/05 07:46:44;;;;;;;15.32;2.50;;;8.00;99.90;;;;;;6341822;22;19999;-86
2024/02/05 07:49:09;;;;;;;18.02;3.05;;;8.00;99.90;;;;;;6341666;22;19998;-83
2024/02/05 07:51:46;;;;;;;17.30;3.55;;;8.00;99.90;;;;;;6342431;22;20015;-84
2024/02/05 07:54:12;;;;;;;16.13;3.45;;;8.00;99.90;;;;;;6316714;22;20014;-84
2024/02/05 07:56:42;;;;;;;11.90;2.67;;;8.10;99.90;;;;;;6369630;22;20485;-84
2024/02/05 07:59:11;;;;;;;16.50;3.65;;;8.10;99.90;;;;;;6368935;22;20005;-85
2024/02/05 08:01:37;;;;;;;15.38;2.88;;;8.00;99.90;;;;;;6369070;22;19991;-84
2024/02/05 08:04:03;;;;;;;16.20;2.97;;;8.00;99.90;;;;;;6369344;22;20379;-83
2024/02/05 08:06:30;;;;;;;16.38;3.00;;;8.10;99.90;;;;;;6341400;22;20029;-84
2024/02/05 08:08:56;;;;;;;17.08;3.33;;;8.00;99.90;;;;;;6341644;22;20006;-83
2024/02/05 08:11:23;;;;;;;22.08;3.60;;;8.10;99.90;;;;;;6341134;22;20018;-86
2024/02/05 08:13:52;;;;;;;13.70;3.13;;;8.10;99.90;;;;;;6341334;22;20037;-83
2024/02/05 08:16:18;;;;;;;14.32;2.80;;;8.10;99.90;;;;;;6369073;22;20007;-85
2024/02/05 08:18:44;;;;;;;14.68;3.10;;;8.10;99.90;;;;;;6341139;22;20033;-86
2024/02/05 08:21:10;;;;;;;16.58;3.17;;;8.10;99.90;;;;;;6341121;22;20014;-85
2024/02/05 08:23:36;;;;;;;16.90;3.05;;;8.20;99.90;;;;;;6341601;22;20021;-85
2024/02/05 08:26:02;;;;;;;17.13;3.38;;;8.20;99.90;;;;;;6369609;22;20333;-83
2024/02/05 08:28:28;;;;;;;10.95;3.08;;;8.20;99.90;;;;;;6341965;22;20008;-85
2024/02/05 08:30:55;;;;;;;14.68;2.42;;;8.30;99.90;;;;;;6341293;22;20097;-84
2024/02/05 08:33:20;;;;;;;12.48;3.47;;;8.30;99.90;;;;;;6341467;22;20002;-83
2024/02/05 08:35:46;;;;;;;9.95;2.83;;;8.30;99.90;;;;;;6341542;22;20009;-84
2024/02/05 08:38:12;;;;;;;15.18;3.53;;;8.30;99.90;;;;;;6341704;22;20007;-85
2024/02/05 08:40:37;;;;;;;17.45;2.97;;;8.40;99.90;;;;;;6341474;22;19998;-83
2024/02/05 08:43:04;;;;;;;17.63;2.50;;;8.30;99.90;;;;;;6341942;22;20037;-84
2024/02/05 08:45:30;;;;;;;15.18;3.40;;;8.40;99.90;;;;;;6369602;22;20425;-84
2024/02/05 08:47:56;;;;;;;12.10;2.50;;;8.40;99.90;;;;;;6340857;22;20009;-83
2024/02/05 08:50:31;;;;;;;18.55;2.67;;;8.40;99.90;;;;;;6368907;22;20002;-83
2024/02/05 08:52:56;;;;;;;16.00;2.40;;;8.40;99.90;;;;;;6341878;22;20002;-84
2024/02/05 08:55:22;;;;;;;8.40;2.00;;;8.40;99.90;;;;;;6341423;22;20100;-85
2024/02/05 08:57:50;;;;;;;18.75;4.10;;;8.40;99.90;;;;;;6337495;22;20418;-84
2024/02/05 09:00:17;;;;;;;8.32;1.67;;;8.50;99.90;;;;;;6336800;22;20029;-85
2024/02/05 09:02:43;;;;;;;6.68;1.75;;;8.50;99.90;;;;;;6338986;22;19998;-84
2024/02/05 09:05:09;;;;;;;4.82;1.45;;;8.50;99.90;;;;;;6369019;22;20030;-84
2024/02/05 09:07:35;;;;;;;9.93;1.85;;;8.50;99.90;;;;;;6340697;22;19999;-84
2024/02/05 09:10:02;;;;;;;7.63;1.10;;;8.50;99.90;;;;;;6339866;22;20010;-83
2024/02/05 09:12:28;;;;;;;10.20;2.47;;;8.60;99.90;;;;;;6341626;22;20036;-84
2024/02/05 09:14:54;;;;;;;4.47;1.58;;;8.60;99.90;;;;;;6342910;22;20477;-85
2024/02/05 09:17:20;;;;;;;10.02;1.92;;;8.60;99.90;;;;;;6341393;22;20040;-84
2024/02/05 09:19:46;;;;;;;7.55;0.98;;;8.60;99.90;;;;;;6340180;22;20014;-84
2024/02/05 09:22:12;;;;;;;2.88;0.95;;;8.70;99.90;;;;;;6341965;22;20007;-85
2024/02/05 09:24:38;;;;;;;7.05;1.48;;;8.70;99.90;;;;;;6371915;22;19999;-85
2024/02/05 09:27:05;;;;;;;2.80;0.90;;;8.70;99.90;;;;;;6354194;22;20434;-85
2024/02/05 09:29:31;;;;;;;4.03;0.77;;;8.70;99.90;;;;;;6357194;22;20010;-85
2024/02/05 09:31:58;;;;;;;3.85;1.20;;;8.80;99.90;;;;;;6376447;22;20055;-83
2024/02/05 09:34:23;;;;;;;6.70;1.00;;;8.80;99.90;;;;;;6340957;22;20014;-83
2024/02/05 09:36:49;;;;;;;3.25;0.90;;;8.80;99.90;;;;;;6340703;22;20006;-84
2024/02/05 09:39:15;;;;;;;7.15;0.70;;;8.80;99.90;;;;;;6340291;22;20003;-85
2024/02/05 09:41:41;;;;;;;4.55;1.33;;;8.90;99.90;;;;;;6340398;22;20345;-83
2024/02/05 09:44:08;;;;;;;3.40;1.25;;;8.90;99.90;;;;;;6340689;22;20013;-84
2024/02/05 09:46:34;;;;;;;5.55;1.10;;;9.00;99.90;;;;;;6340569;22;20007;-83
2024/02/05 09:49:02;;;;;;;6.32;0.75;;;9.00;99.90;;;;;;6339880;22;20089;-84
2024/02/05 09:51:29;;;;;;;3.03;0.98;;;9.00;99.90;;;;;;6367922;22;20387;-84
2024/02/05 09:53:57;;;;;;;2.28;0.55;;;9.10;99.90;;;;;;6340648;22;20052;-83
2024/02/05 09:56:27;;;;;;;5.22;0.88;;;9.10;99.90;;;;;;6342295;22;20006;-85
2024/02/05 09:58:54;;;;;;;1.70;0.50;;;9.10;99.90;;;;;;6371524;22;20006;-85
2024/02/05 10:01:25;;;;;;;2.80;0.70;;;9.20;99.90;;;;;;6371397;22;20009;-86
2024/02/05 10:03:53;;;;;;;2.50;0.40;;;9.20;99.90;;;;;;6371815;22;20014;-82
2024/02/05 10:06:30;;;;;;;0.80;0.40;;;9.30;99.90;;;;;;6345030;22;20045;-84
2024/02/05 10:09:06;;;;;;;1.17;0.30;;;9.40;99.90;;;;;;6345836;22;20031;-83
2024/02/05 10:11:34;;;;;;;1.95;0.38;;;9.50;99.90;;;;;;6375074;22;20007;-85
2024/02/05 10:14:00;;;;;;;0.40;0.30;;;9.80;99.90;;;;;;6349278;22;20006;-84
2024/02/05 10:16:26;;;;;;;0.40;0.20;;;10.00;99.90;;;;;;6351379;22;20006;-85
2024/02/05 10:18:52;;;;;;;0.40;0.30;;;10.30;99.90;;;;;;6377027;22;20073;-85
2024/02/05 10:21:18;;;;;;;0.43;0.30;;;10.50;99.90;;;;;;6376025;22;20007;-88
2024/02/05 10:23:54;;;;;;;0.20;0.20;;;10.60;99.90;;;;;;6373249;22;20013;-87
2024/02/05 10:26:22;;;;;;;0.80;0.30;;;10.70;99.90;;;;;;6370412;22;20013;-87
2024/02/05 10:28:48;;;;;;;2.50;0.52;;;10.80;99.90;;;;;;6370109;22;20040;-86
2024/02/05 10:31:16;;;;;;;0.47;0.30;;;10.80;99.90;;;;;;6369839;22;20014;-85
2024/02/05 10:33:44;;;;;;;1.13;0.47;;;10.80;99.90;;;;;;6341498;22;20456;-85
2024/02/05 10:36:16;;;;;;;4.10;1.00;;;10.80;99.90;;;;;;6341440;22;20575;-86
2024/02/05 10:38:41;;;;;;;1.45;0.75;;;10.80;99.90;;;;;;6340861;22;20333;-84
2024/02/05 10:41:10;;;;;;;2.10;0.55;;;10.80;99.90;;;;;;6340838;22;20006;-84
2024/02/05 10:43:39;;;;;;;2.20;1.08;;;10.80;99.90;;;;;;6369523;22;19999;-87
2024/02/05 10:46:06;;;;;;;0.57;0.30;;;10.80;99.90;;;;;;6368680;22;20452;-84
2024/02/05 10:48:33;;;;;;;3.03;0.52;;;10.80;99.90;;;;;;6368171;22;20469;-83
2024/02/05 10:50:59;;;;;;;0.10;0.10;;;10.70;99.90;;;;;;6339869;22;20003;-84
2024/02/05 10:53:27;;;;;;;0.38;0.20;;;10.80;99.90;;;;;;6340697;22;20013;-84
2024/02/05 10:55:56;;;;;;;0.45;0.10;;;10.70;99.90;;;;;;6340627;22;20002;-84
2024/02/05 10:58:22;;;;;;;1.88;0.50;;;10.70;99.90;;;;;;6368586;22;20437;-86
2024/02/05 11:00:47;;;;;;;1.52;0.20;;;10.70;99.90;;;;;;6340638;22;19998;-85
2024/02/05 11:03:19;;;;;;;1.73;0.32;;;10.70;99.90;;;;;;6369067;22;20002;-85
2024/02/05 11:05:51;;;;;;;0.88;0.45;;;10.70;99.90;;;;;;6341734;22;20002;-85
2024/02/05 11:08:23;;;;;;;1.10;0.73;;;10.70;99.90;;;;;;6341597;22;20002;-82
2024/02/05 11:10:52;;;;;;;0.95;0.30;;;10.60;99.90;;;;;;6369318;22;20010;-85
2024/02/05 11:13:34;;;;;;;0.85;0.50;;;10.60;99.90;;;;;;6369381;22;20002;-84
2024/02/05 11:16:01;;;;;;;2.10;0.40;;;10.60;99.90;;;;;;6341891;22;20310;-85
2024/02/05 11:18:33;;;;;;;1.73;0.40;;;10.60;99.90;;;;;;6341137;22;20091;-85
2024/02/05 11:21:01;;;;;;;2.75;0.40;;;10.60;99.90;;;;;;6340564;22;20017;-85
2024/02/05 11:23:29;;;;;;;2.83;0.52;;;10.60;99.90;;;;;;6369638;22;20008;-84
2024/02/05 11:25:54;;;;;;;4.15;0.88;;;10.50;99.90;;;;;;6369457;22;20006;-85
2024/02/05 11:28:20;;;;;;;4.68;1.48;;;10.50;99.90;;;;;;6341141;22;20009;-85
2024/02/05 11:30:47;;;;;;;0.63;0.50;;;10.50;99.90;;;;;;6368954;22;20034;-90
2024/02/05 11:33:29;;;;;;;6.00;1.13;;;10.50;99.90;;;;;;6341260;22;20002;-86
2024/02/05 11:35:56;;;;;;;3.78;0.90;;;10.50;99.90;;;;;;6340833;22;20132;-86
2024/02/05 11:38:21;;;;;;;2.33;0.70;;;10.50;99.90;;;;;;6368113;22;20333;-86
2024/02/05 11:40:52;;;;;;;1.75;0.80;;;10.50;99.90;;;;;;6340425;22;20012;-85
2024/02/05 11:43:25;;;;;;;2.80;1.15;;;10.50;99.90;;;;;;6340736;22;20368;-85
2024/02/05 11:45:52;;;;;;;9.55;1.77;;;10.60;99.90;;;;;;6340483;22;20006;-85
2024/02/05 11:48:22;;;;;;;4.18;1.02;;;10.60;99.90;;;;;;6339801;22;20002;-87
2024/02/05 11:50:48;;;;;;;4.15;1.15;;;10.60;99.90;;;;;;6368375;22;20026;-85
2024/02/05 11:53:15;;;;;;;4.68;1.10;;;10.60;99.90;;;;;;6368023;22;20086;-88
2024/02/05 11:55:44;;;;;;;4.65;1.20;;;10.60;99.90;;;;;;6340616;22;20085;-85
2024/02/05 11:58:13;;;;;;;4.47;1.30;;;10.50;99.90;;;;;;6340013;22;20006;-85
2024/02/05 12:00:39;;;;;;;3.53;1.02;;;10.50;99.90;;;;;;6340230;22;20014;-86
2024/02/05 12:03:06;;;;;;;5.63;1.40;;;10.50;99.90;;;;;;6340565;22;20051;-85
2024/02/05 12:05:32;;;;;;;6.00;1.65;;;10.50;99.90;;;;;;6340331;22;20059;-85
2024/02/05 12:08:01;;;;;;;3.67;1.42;;;10.50;99.90;;;;;;6340775;22;19991;-85
2024/02/05 12:10:28;;;;;;;8.27;1.75;;;10.50;99.90;;;;;;6340854;22;20010;-85
2024/02/05 12:12:55;;;;;;;8.38;1.65;;;10.50;99.90;;;;;;6341715;22;20123;-85
2024/02/05 12:15:29;;;;;;;9.77;2.17;;;10.50;99.90;;;;;;6340873;22;20013;-88
2024/02/05 12:18:07;;;;;;;4.32;1.67;;;10.40;99.90;;;;;;6340400;22;20063;-86
2024/02/05 12:20:33;;;;;;;7.05;1.67;;;10.40;99.90;;;;;;6340290;22;20010;-86
2024/02/05 12:23:00;;;;;;;8.77;2.13;;;10.40;99.90;;;;;;6368612;22;20370;-86
2024/02/05 12:25:26;;;;;;;6.43;1.60;;;10.40;99.90;;;;;;6340803;22;20077;-86
2024/02/05 12:27:52;;;;;;;13.48;2.55;;;10.40;99.90;;;;;;6340836;22;20393;-86
2024/02/05 12:30:18;;;;;;;12.43;2.38;;;10.40;99.90;;;;;;6341040;22;20029;-84
2024/02/05 12:32:51;;;;;;;10.98;2.42;;;10.40;99.90;;;;;;6341466;22;20014;-85
2024/02/05 12:35:17;;;;;;;8.05;3.15;;;10.40;99.90;;;;;;6340783;22;20097;-86
2024/02/05 12:37:43;;;;;;;11.82;3.33;;;10.40;99.90;;;;;;6341267;22;20425;-87
2024/02/05 12:40:10;;;;;;;6.18;1.90;;;10.40;99.90;;;;;;6340995;22;19995;-86
2024/02/05 12:42:36;;;;;;;8.85;2.47;;;10.50;99.90;;;;;;6368005;22;20007;-87
2024/02/05 12:45:06;;;;;;;10.18;2.53;;;10.50;99.90;;;;;;6339793;22;19998;-86
2024/02/05 12:47:32;;;;;;;7.25;2.10;;;10.50;99.90;;;;;;6341933;22;20003;-86